createdAt,value
2019-02-21T00:00:37.887Z,101281.00
2019-02-21T00:03:07.345Z,101278.00
2019-02-21T00:05:36.867Z,101279.00
2019-02-21T00:08:06.335Z,101288.00
2019-02-21T00:10:35.793Z,101284.00
2019-02-21T00:13:05.250Z,101280.00
2019-02-21T00:15:34.739Z,101290.00
2019-02-21T00:18:04.209Z,101287.00
2019-02-21T00:20:33.673Z,101286.00
2019-02-21T00:23:03.159Z,101288.00
2019-02-21T00:25:32.608Z,101292.00
2019-02-21T00:28:02.092Z,101296.00
2019-02-21T00:30:35.187Z,101292.00
2019-02-21T00:33:08.279Z,101298.00
2019-02-21T00:35:37.766Z,101290.00
2019-02-21T00:38:07.250Z,101297.00
2019-02-21T00:40:36.703Z,101297.00
2019-02-21T00:43:06.193Z,101296.00
2019-02-21T00:45:35.655Z,101294.00
2019-02-21T00:48:06.712Z,101295.00
2019-02-21T00:50:36.248Z,101296.00
2019-02-21T00:53:05.704Z,101288.00
2019-02-21T00:55:35.175Z,101298.00
2019-02-21T00:58:04.668Z,101293.00
2019-02-21T01:00:34.113Z,101299.00
2019-02-21T01:03:04.148Z,101298.00
2019-02-21T01:05:33.634Z,101300.00
2019-02-21T01:08:03.254Z,101307.00
2019-02-21T01:10:32.705Z,101304.00
2019-02-21T01:13:02.217Z,101308.00
2019-02-21T01:15:31.658Z,101312.00
2019-02-21T01:18:01.115Z,101308.00
2019-02-21T01:20:30.612Z,101308.00
2019-02-21T01:23:00.064Z,101306.00
2019-02-21T01:25:29.506Z,101302.00
2019-02-21T01:27:58.997Z,101305.00
2019-02-21T01:30:28.714Z,101303.00
2019-02-21T01:32:58.159Z,101301.00
2019-02-21T01:35:27.643Z,101292.00
2019-02-21T01:37:57.115Z,101305.00
2019-02-21T01:40:26.567Z,101294.00
2019-02-21T01:42:56.055Z,101303.00
2019-02-21T01:45:25.567Z,101300.00
2019-02-21T01:47:55.037Z,101304.00
2019-02-21T01:50:25.975Z,101305.00
2019-02-21T01:52:55.705Z,101296.00
2019-02-21T01:55:25.188Z,101302.00
2019-02-21T01:57:54.684Z,101300.00
2019-02-21T02:00:24.127Z,101307.00
2019-02-21T02:02:53.607Z,101308.00
2019-02-21T02:05:23.206Z,101308.00
2019-02-21T02:07:52.657Z,101308.00
2019-02-21T02:10:22.279Z,101306.00
2019-02-21T02:12:51.938Z,101303.00
2019-02-21T02:15:21.379Z,101302.00
2019-02-21T02:17:50.823Z,101307.00
2019-02-21T02:20:20.314Z,101299.00
2019-02-21T02:22:49.760Z,101298.00
2019-02-21T02:25:19.220Z,101305.00
2019-02-21T02:27:48.698Z,101294.00
2019-02-21T02:30:18.151Z,101297.00
2019-02-21T02:32:47.617Z,101298.00
2019-02-21T02:35:17.085Z,101296.00
2019-02-21T02:37:46.544Z,101301.00
2019-02-21T02:40:16.005Z,101290.00
2019-02-21T02:42:45.493Z,101293.00
2019-02-21T02:45:15.016Z,101288.00
2019-02-21T02:47:44.466Z,101293.00
2019-02-21T02:50:13.962Z,101292.00
2019-02-21T02:52:43.471Z,101287.00
2019-02-21T02:55:13.001Z,101288.00
2019-02-21T02:57:42.465Z,101291.00
2019-02-21T03:00:15.075Z,101287.00
2019-02-21T03:02:44.522Z,101286.00
2019-02-21T03:05:14.182Z,101289.00
2019-02-21T03:07:43.629Z,101285.00
2019-02-21T03:10:14.181Z,101282.00
2019-02-21T03:12:43.690Z,101283.00
2019-02-21T03:15:13.206Z,101286.00
2019-02-21T03:17:42.657Z,101287.00
2019-02-21T03:20:12.351Z,101281.00
2019-02-21T03:22:41.791Z,101281.00
2019-02-21T03:25:11.666Z,101281.00
2019-02-21T03:27:41.147Z,101283.00
2019-02-21T03:30:12.855Z,101291.00
2019-02-21T03:32:42.550Z,101286.00
2019-02-21T03:35:12.036Z,101289.00
2019-02-21T03:37:41.485Z,101292.00
2019-02-21T03:40:11.637Z,101288.00
2019-02-21T03:42:41.114Z,101301.00
2019-02-21T03:45:15.553Z,101291.00
2019-02-21T03:47:45.117Z,101291.00
2019-02-21T03:50:14.626Z,101298.00
2019-02-21T03:52:44.098Z,101292.00
2019-02-21T03:55:13.578Z,101289.00
2019-02-21T03:57:43.037Z,101286.00
2019-02-21T04:00:13.289Z,101292.00
2019-02-21T04:02:42.914Z,101292.00
2019-02-21T04:05:12.420Z,101285.00
2019-02-21T04:08:01.203Z,101291.00
2019-02-21T04:10:30.691Z,101286.00
2019-02-21T04:13:00.159Z,101283.00
2019-02-21T04:15:29.997Z,101288.00
2019-02-21T04:17:59.447Z,101279.00
2019-02-21T04:20:28.918Z,101282.00
2019-02-21T04:22:58.398Z,101288.00
2019-02-21T04:25:27.850Z,101284.00
2019-02-21T04:27:57.365Z,101289.00
2019-02-21T04:30:26.827Z,101275.00
2019-02-21T04:32:56.272Z,101286.00
2019-02-21T04:35:25.730Z,101278.00
2019-02-21T04:37:55.187Z,101276.00
2019-02-21T04:40:24.681Z,101264.00
2019-02-21T04:42:54.137Z,101277.00
2019-02-21T04:45:23.623Z,101270.00
2019-02-21T04:47:53.074Z,101276.00
2019-02-21T04:50:22.530Z,101269.00
2019-02-21T04:52:52.074Z,101267.00
2019-02-21T04:55:21.533Z,101272.00
2019-02-21T04:57:51.018Z,101268.00
2019-02-21T05:00:20.477Z,101271.00
2019-02-21T05:02:49.970Z,101267.00
2019-02-21T05:05:19.418Z,101266.00
2019-02-21T05:07:48.892Z,101269.00
2019-02-21T05:10:18.349Z,101266.00
2019-02-21T05:12:47.805Z,101262.00
2019-02-21T05:15:17.351Z,101264.00
2019-02-21T05:17:46.829Z,101260.00
2019-02-21T05:20:16.298Z,101259.00
2019-02-21T05:22:45.799Z,101257.00
2019-02-21T05:25:15.248Z,101258.00
2019-02-21T05:27:46.399Z,101265.00
2019-02-21T05:30:17.494Z,101265.00
2019-02-21T05:32:51.922Z,101258.00
2019-02-21T05:35:31.271Z,101262.00
2019-02-21T05:38:01.845Z,101267.00
2019-02-21T05:40:35.764Z,101264.00
2019-02-21T05:43:15.756Z,101272.00
2019-02-21T05:46:03.284Z,101269.00
2019-02-21T05:48:46.673Z,101276.00
2019-02-21T05:51:20.913Z,101277.00
2019-02-21T05:53:58.135Z,101283.00
2019-02-21T05:56:29.264Z,101274.00
2019-02-21T05:59:03.137Z,101279.00
2019-02-21T06:01:34.280Z,101287.00
2019-02-21T06:04:11.103Z,101288.00
2019-02-21T06:06:42.239Z,101291.00
2019-02-21T06:09:13.402Z,101296.00
2019-02-21T06:11:50.340Z,101288.00
2019-02-21T06:14:27.165Z,101295.00
2019-02-21T06:17:03.970Z,101287.00
2019-02-21T06:19:35.230Z,101294.00
2019-02-21T06:22:11.002Z,101288.00
2019-02-21T06:24:41.828Z,101296.00
2019-02-21T06:27:24.886Z,101292.00
2019-02-21T06:29:58.886Z,101300.00
2019-02-21T06:32:28.377Z,101288.00
2019-02-21T06:34:57.874Z,101297.00
2019-02-21T06:37:27.342Z,101299.00
2019-02-21T06:39:56.804Z,101295.00
2019-02-21T06:42:26.267Z,101293.00
2019-02-21T06:44:55.722Z,101289.00
2019-02-21T06:47:25.209Z,101287.00
2019-02-21T06:49:54.652Z,101293.00
2019-02-21T06:52:24.141Z,101291.00
2019-02-21T06:54:53.602Z,101298.00
2019-02-21T06:57:23.076Z,101292.00
2019-02-21T06:59:52.569Z,101292.00
2019-02-21T07:02:22.059Z,101292.00
2019-02-21T07:04:51.517Z,101293.00
2019-02-21T07:07:21.011Z,101283.00
2019-02-21T07:09:50.457Z,101286.00
2019-02-21T07:12:19.952Z,101288.00
2019-02-21T07:14:49.414Z,101277.00
2019-02-21T07:17:18.917Z,101282.00
2019-02-21T07:19:48.373Z,101282.00
2019-02-21T07:22:20.056Z,101287.00
2019-02-21T07:24:53.953Z,101281.00
2019-02-21T07:27:23.226Z,101293.00
2019-02-21T07:29:52.784Z,101296.00
2019-02-21T07:32:22.210Z,101293.00
2019-02-21T07:34:51.711Z,101284.00
2019-02-21T07:37:21.156Z,101292.00
2019-02-21T07:39:50.933Z,101296.00
2019-02-21T07:42:20.388Z,101287.00
2019-02-21T07:44:49.904Z,101287.00
2019-02-21T07:47:19.325Z,101287.00
2019-02-21T07:49:48.795Z,101293.00
2019-02-21T07:52:18.239Z,101289.00
2019-02-21T07:54:50.920Z,101287.00
2019-02-21T07:57:18.903Z,101305.00
2019-02-21T07:59:48.378Z,101296.00
2019-02-21T08:02:17.827Z,101295.00
2019-02-21T08:04:47.429Z,101297.00
2019-02-21T08:07:17.018Z,101300.00
2019-02-21T08:09:46.469Z,101298.00
2019-02-21T08:12:15.909Z,101295.00
2019-02-21T08:14:45.691Z,101302.00
2019-02-21T08:17:16.273Z,101299.00
2019-02-21T08:19:45.938Z,101291.00
2019-02-21T08:22:15.529Z,101301.00
2019-02-21T08:24:44.977Z,101294.00
2019-02-21T08:27:15.343Z,101283.00
2019-02-21T08:29:44.832Z,101293.00
2019-02-21T08:32:15.916Z,101296.00
2019-02-21T08:34:48.245Z,101300.00
2019-02-21T08:37:18.085Z,101298.00
2019-02-21T08:39:47.548Z,101294.00
2019-02-21T08:42:17.011Z,101299.00
2019-02-21T08:44:46.483Z,101300.00
2019-02-21T08:47:15.944Z,101292.00
2019-02-21T08:49:45.407Z,101298.00
2019-02-21T08:52:14.875Z,101292.00
2019-02-21T08:54:44.322Z,101295.00
2019-02-21T08:57:13.918Z,101289.00
2019-02-21T08:59:43.647Z,101292.00
2019-02-21T09:02:13.092Z,101295.00
2019-02-21T09:04:42.534Z,101286.00
2019-02-21T09:07:12.135Z,101286.00
2019-02-21T09:09:41.646Z,101282.00
2019-02-21T09:12:11.285Z,101277.00
2019-02-21T09:14:40.760Z,101281.00
2019-02-21T09:17:10.222Z,101278.00
2019-02-21T09:19:39.760Z,101283.00
2019-02-21T09:22:09.250Z,101273.00
2019-02-21T09:24:42.185Z,101276.00
2019-02-21T09:27:09.856Z,101273.00
2019-02-21T09:29:39.374Z,101279.00
2019-02-21T09:32:08.818Z,101280.00
2019-02-21T09:34:38.289Z,101280.00
2019-02-21T09:37:07.776Z,101281.00
2019-02-21T09:39:37.229Z,101284.00
2019-02-21T09:42:06.742Z,101278.00
2019-02-21T09:44:36.210Z,101276.00
2019-02-21T09:47:05.657Z,101269.00
2019-02-21T09:49:35.107Z,101278.00
2019-02-21T09:52:04.639Z,101277.00
2019-02-21T09:54:34.086Z,101266.00
2019-02-21T09:57:12.839Z,101257.00
2019-02-21T09:59:34.757Z,101268.00
2019-02-21T10:02:04.216Z,101262.00
2019-02-21T10:04:33.668Z,101268.00
2019-02-21T10:07:03.335Z,101272.00
2019-02-21T10:09:32.821Z,101271.00
2019-02-21T10:12:02.307Z,101274.00
2019-02-21T10:14:31.804Z,101275.00
2019-02-21T10:17:01.248Z,101267.00
2019-02-21T10:19:30.763Z,101276.00
2019-02-21T10:22:00.255Z,101273.00
2019-02-21T10:24:29.705Z,101271.00
2019-02-21T10:26:59.161Z,101272.00
2019-02-21T10:29:29.774Z,101277.00
2019-02-21T10:31:59.370Z,101272.00
2019-02-21T10:34:28.819Z,101268.00
2019-02-21T10:36:58.293Z,101267.00
2019-02-21T10:39:27.751Z,101265.00
2019-02-21T10:41:57.209Z,101251.00
2019-02-21T10:44:26.832Z,101245.00
2019-02-21T10:46:56.286Z,101245.00
2019-02-21T10:49:25.735Z,101241.00
2019-02-21T10:51:55.217Z,101246.00
2019-02-21T10:54:24.684Z,101236.00
2019-02-21T10:56:54.134Z,101240.00
2019-02-21T10:59:23.626Z,101243.00
2019-02-21T11:01:53.065Z,101238.00
2019-02-21T11:04:22.507Z,101231.00
2019-02-21T11:06:51.986Z,101228.00
2019-02-21T11:09:22.266Z,101234.00
2019-02-21T11:11:51.715Z,101220.00
2019-02-21T11:14:21.200Z,101218.00
2019-02-21T11:16:50.648Z,101209.00
2019-02-21T11:19:20.104Z,101208.00
2019-02-21T11:21:49.763Z,101200.00
2019-02-21T11:24:19.390Z,101203.00
2019-02-21T11:26:48.840Z,101196.00
2019-02-21T11:29:18.339Z,101195.00
2019-02-21T11:31:47.780Z,101191.00
2019-02-21T11:34:17.303Z,101200.00
2019-02-21T11:36:46.775Z,101198.00
2019-02-21T11:39:16.228Z,101197.00
2019-02-21T11:41:45.673Z,101186.00
2019-02-21T11:44:15.148Z,101193.00
2019-02-21T11:46:44.609Z,101179.00
2019-02-21T11:49:14.039Z,101182.00
2019-02-21T11:51:43.508Z,101179.00
2019-02-21T11:54:15.917Z,101172.00
2019-02-21T11:56:44.127Z,101169.00
2019-02-21T11:59:16.029Z,101177.00
2019-02-21T12:01:44.776Z,101179.00
2019-02-21T12:04:14.216Z,101171.00
2019-02-21T12:06:43.698Z,101170.00
2019-02-21T12:09:13.318Z,101166.00
2019-02-21T12:11:42.781Z,101157.00
2019-02-21T12:14:12.270Z,101158.00
2019-02-21T12:16:41.716Z,101158.00
2019-02-21T12:19:11.180Z,101156.00
2019-02-21T12:21:40.665Z,101152.00
2019-02-21T12:24:10.115Z,101153.00
2019-02-21T12:26:41.316Z,101158.00
2019-02-21T12:29:10.793Z,101151.00
2019-02-21T12:31:40.241Z,101154.00
2019-02-21T12:34:09.703Z,101161.00
2019-02-21T12:36:39.181Z,101155.00
2019-02-21T12:39:08.911Z,101162.00
2019-02-21T12:41:38.343Z,101160.00
2019-02-21T12:44:07.850Z,101158.00
2019-02-21T12:46:37.312Z,101151.00
2019-02-21T12:49:06.761Z,101163.00
2019-02-21T12:51:36.252Z,101151.00
2019-02-21T12:54:05.717Z,101156.00
2019-02-21T12:56:35.162Z,101149.00
2019-02-21T12:59:04.645Z,101153.00
2019-02-21T13:01:34.099Z,101150.00
2019-02-21T13:04:03.550Z,101158.00
2019-02-21T13:06:33.038Z,101153.00
2019-02-21T13:09:02.490Z,101156.00
2019-02-21T13:11:31.956Z,101164.00
2019-02-21T13:14:01.505Z,101159.00
2019-02-21T13:16:32.495Z,101156.00
2019-02-21T13:19:01.935Z,101153.00
2019-02-21T13:21:31.415Z,101157.00
2019-02-21T13:24:00.883Z,101151.00
2019-02-21T13:26:30.344Z,101153.00
2019-02-21T13:28:59.919Z,101151.00
2019-02-21T13:31:29.396Z,101151.00
2019-02-21T13:33:58.852Z,101148.00
2019-02-21T13:36:28.326Z,101154.00
2019-02-21T13:38:57.797Z,101149.00
2019-02-21T13:41:27.252Z,101151.00
2019-02-21T13:43:56.719Z,101149.00
2019-02-21T13:46:36.896Z,101148.00
2019-02-21T13:48:57.527Z,101151.00
2019-02-21T13:51:26.988Z,101159.00
2019-02-21T13:53:56.462Z,101153.00
2019-02-21T13:56:25.932Z,101157.00
2019-02-21T13:58:55.423Z,101150.00
2019-02-21T14:01:24.882Z,101162.00
2019-02-21T14:03:56.582Z,101164.00
2019-02-21T14:06:25.564Z,101161.00
2019-02-21T14:08:55.005Z,101159.00
2019-02-21T14:11:24.494Z,101164.00
2019-02-21T14:13:53.983Z,101165.00
2019-02-21T14:16:23.454Z,101163.00
2019-02-21T14:18:52.947Z,101158.00
2019-02-21T14:21:22.414Z,101161.00
2019-02-21T14:23:51.900Z,101152.00
2019-02-21T14:26:21.360Z,101157.00
2019-02-21T14:28:50.858Z,101154.00
2019-02-21T14:31:20.323Z,101161.00
2019-02-21T14:33:51.780Z,101156.00
2019-02-21T14:36:20.992Z,101156.00
2019-02-21T14:38:50.445Z,101154.00
2019-02-21T14:41:19.904Z,101157.00
2019-02-21T14:43:49.379Z,101155.00
2019-02-21T14:46:18.834Z,101152.00
2019-02-21T14:48:48.300Z,101152.00
2019-02-21T14:51:17.771Z,101153.00
2019-02-21T14:53:47.213Z,101158.00
2019-02-21T14:56:16.669Z,101154.00
2019-02-21T14:58:47.697Z,101158.00
2019-02-21T15:01:17.195Z,101153.00
2019-02-21T15:03:46.701Z,101156.00
2019-02-21T15:06:26.478Z,101148.00
2019-02-21T15:08:47.468Z,101155.00
2019-02-21T15:11:16.934Z,101146.00
2019-02-21T15:13:46.408Z,101150.00
2019-02-21T15:16:15.907Z,101140.00
2019-02-21T15:18:45.353Z,101142.00
2019-02-21T15:21:14.844Z,101147.00
2019-02-21T15:23:44.309Z,101139.00
2019-02-21T15:26:13.746Z,101140.00
2019-02-21T15:28:43.242Z,101152.00
2019-02-21T15:31:14.402Z,101141.00
2019-02-21T15:33:43.863Z,101129.00
2019-02-21T15:36:13.333Z,101136.00
2019-02-21T15:38:42.779Z,101128.00
2019-02-21T15:41:12.236Z,101124.00
2019-02-21T15:43:41.726Z,101123.00
2019-02-21T15:46:11.182Z,101116.00
2019-02-21T15:48:40.630Z,101123.00
2019-02-21T15:51:10.200Z,101123.00
2019-02-21T15:53:39.662Z,101126.00
2019-02-21T15:56:09.108Z,101128.00
2019-02-21T15:58:38.593Z,101131.00
2019-02-21T16:01:08.126Z,101125.00
2019-02-21T16:03:37.580Z,101126.00
2019-02-21T16:06:07.042Z,101124.00
2019-02-21T16:08:36.493Z,101133.00
2019-02-21T16:11:05.958Z,101126.00
2019-02-21T16:13:35.459Z,101132.00
2019-02-21T16:16:05.374Z,101128.00
2019-02-21T16:18:35.068Z,101123.00
2019-02-21T16:21:04.538Z,101124.00
2019-02-21T16:23:34.054Z,101121.00
2019-02-21T16:26:03.514Z,101116.00
2019-02-21T16:28:33.008Z,101116.00
2019-02-21T16:31:02.448Z,101119.00
2019-02-21T16:33:32.281Z,101115.00
2019-02-21T16:36:01.804Z,101112.00
2019-02-21T16:38:31.294Z,101117.00
2019-02-21T16:41:00.693Z,101122.00
2019-02-21T16:43:30.170Z,101117.00
2019-02-21T16:46:07.424Z,101114.00
2019-02-21T16:48:30.794Z,101119.00
2019-02-21T16:51:00.260Z,101126.00
2019-02-21T16:53:29.875Z,101119.00
2019-02-21T16:55:59.332Z,101120.00
2019-02-21T16:58:28.835Z,101120.00
2019-02-21T17:00:58.279Z,101120.00
2019-02-21T17:03:27.720Z,101121.00
2019-02-21T17:05:57.223Z,101122.00
2019-02-21T17:08:26.700Z,101120.00
2019-02-21T17:10:56.135Z,101120.00
2019-02-21T17:13:25.607Z,101119.00
2019-02-21T17:15:55.633Z,101113.00
2019-02-21T17:18:25.099Z,101112.00
2019-02-21T17:20:54.576Z,101109.00
2019-02-21T17:23:24.027Z,101111.00
2019-02-21T17:25:53.555Z,101109.00
2019-02-21T17:28:23.026Z,101107.00
2019-02-21T17:30:52.489Z,101102.00
2019-02-21T17:33:21.964Z,101108.00
2019-02-21T17:35:52.948Z,101112.00
2019-02-21T17:38:22.407Z,101110.00
2019-02-21T17:40:51.861Z,101109.00
2019-02-21T17:43:21.343Z,101117.00
2019-02-21T17:45:50.812Z,101102.00
2019-02-21T17:48:20.688Z,101104.00
2019-02-21T17:50:50.235Z,101105.00
2019-02-21T17:53:19.710Z,101103.00
2019-02-21T17:55:49.173Z,101101.00
2019-02-21T17:58:18.746Z,101090.00
2019-02-21T18:00:48.216Z,101093.00
2019-02-21T18:03:19.279Z,101083.00
2019-02-21T18:05:48.785Z,101082.00
2019-02-21T18:08:18.233Z,101081.00
2019-02-21T18:10:47.699Z,101080.00
2019-02-21T18:13:17.151Z,101080.00
2019-02-21T18:15:46.618Z,101071.00
2019-02-21T18:18:16.063Z,101071.00
2019-02-21T18:20:45.553Z,101075.00
2019-02-21T18:23:14.996Z,101068.00
2019-02-21T18:25:54.977Z,101073.00
2019-02-21T18:28:24.460Z,101059.00
2019-02-21T18:30:53.875Z,101070.00
2019-02-21T18:33:23.429Z,101063.00
2019-02-21T18:35:52.880Z,101056.00
2019-02-21T18:38:22.330Z,101056.00
2019-02-21T18:40:51.811Z,101056.00
2019-02-21T18:43:21.274Z,101050.00
2019-02-21T18:45:50.737Z,101051.00
2019-02-21T18:48:20.216Z,101058.00
2019-02-21T18:50:49.676Z,101052.00
2019-02-21T18:53:19.130Z,101050.00
2019-02-21T18:55:48.700Z,101063.00
2019-02-21T18:58:17.951Z,101057.00
2019-02-21T19:00:47.406Z,101063.00
2019-02-21T19:03:16.898Z,101054.00
2019-02-21T19:05:46.422Z,101052.00
2019-02-21T19:08:15.874Z,101057.00
2019-02-21T19:10:45.364Z,101052.00
2019-02-21T19:13:14.814Z,101049.00
2019-02-21T19:15:45.651Z,101046.00
2019-02-21T19:18:15.142Z,101044.00
2019-02-21T19:20:44.602Z,101048.00
2019-02-21T19:23:14.727Z,101050.00
2019-02-21T19:25:44.265Z,101050.00
2019-02-21T19:28:13.724Z,101045.00
2019-02-21T19:30:53.782Z,101044.00
2019-02-21T19:33:23.229Z,101039.00
2019-02-21T19:35:54.693Z,101042.00
2019-02-21T19:38:26.345Z,101039.00
2019-02-21T19:40:55.798Z,101037.00
2019-02-21T19:43:25.312Z,101038.00
2019-02-21T19:45:54.795Z,101040.00
2019-02-21T19:48:26.412Z,101034.00
2019-02-21T19:50:55.858Z,101022.00
2019-02-21T19:53:25.729Z,101021.00
2019-02-21T19:55:55.270Z,101024.00
2019-02-21T19:58:25.082Z,101033.00
2019-02-21T20:00:57.054Z,101027.00
2019-02-21T20:03:26.514Z,101025.00
2019-02-21T20:05:56.034Z,101022.00
2019-02-21T20:08:28.710Z,101023.00
2019-02-21T20:10:58.541Z,101026.00
2019-02-21T20:13:27.996Z,101027.00
2019-02-21T20:15:57.433Z,101017.00
2019-02-21T20:18:27.534Z,101026.00
2019-02-21T20:20:56.983Z,101020.00
2019-02-21T20:23:26.457Z,101027.00
2019-02-21T20:25:55.902Z,101016.00
2019-02-21T20:28:25.431Z,101014.00
2019-02-21T20:30:54.980Z,101017.00
2019-02-21T20:33:24.426Z,101025.00
2019-02-21T20:35:53.867Z,101011.00
2019-02-21T20:38:31.789Z,101022.00
2019-02-21T20:40:54.660Z,101020.00
2019-02-21T20:43:24.116Z,101012.00
2019-02-21T20:45:55.777Z,101012.00
2019-02-21T20:48:26.247Z,101009.00
2019-02-21T20:50:57.225Z,101016.00
2019-02-21T20:53:26.871Z,101014.00
2019-02-21T20:55:56.335Z,101013.00
2019-02-21T20:58:25.785Z,101015.00
2019-02-21T21:00:55.580Z,101018.00
2019-02-21T21:03:25.034Z,101011.00
2019-02-21T21:05:54.760Z,101012.00
2019-02-21T21:08:24.619Z,101007.00
2019-02-21T21:10:54.089Z,101014.00
2019-02-21T21:13:23.558Z,101011.00
2019-02-21T21:15:53.220Z,101011.00
2019-02-21T21:18:22.680Z,101020.00
2019-02-21T21:20:52.138Z,101012.00
2019-02-21T21:23:21.933Z,101005.00
2019-02-21T21:25:51.381Z,101013.00
2019-02-21T21:28:20.847Z,101007.00
2019-02-21T21:30:50.354Z,101009.00
2019-02-21T21:33:19.816Z,101003.00
2019-02-21T21:35:49.271Z,101007.00
2019-02-21T21:38:24.027Z,101007.00
2019-02-21T21:40:49.951Z,101009.00
2019-02-21T21:43:19.407Z,100994.00
2019-02-21T21:45:49.149Z,100992.00
2019-02-21T21:48:18.612Z,100994.00
2019-02-21T21:50:48.067Z,100999.00
2019-02-21T21:53:17.551Z,100992.00
2019-02-21T21:55:47.001Z,101002.00
2019-02-21T21:58:16.807Z,100993.00
2019-02-21T22:00:46.780Z,100995.00
2019-02-21T22:03:16.220Z,101003.00
2019-02-21T22:05:45.668Z,100996.00
2019-02-21T22:08:15.138Z,101000.00
2019-02-21T22:10:56.661Z,101005.00
2019-02-21T22:13:26.350Z,100998.00
2019-02-21T22:15:55.942Z,100992.00
2019-02-21T22:18:25.597Z,101004.00
2019-02-21T22:20:55.311Z,100998.00
2019-02-21T22:23:24.984Z,101000.00
2019-02-21T22:25:54.594Z,100999.00
2019-02-21T22:28:26.263Z,100996.00
2019-02-21T22:30:57.953Z,100997.00
2019-02-21T22:33:27.045Z,100997.00
2019-02-21T22:35:56.798Z,100998.00
2019-02-21T22:38:26.470Z,101000.00
2019-02-21T22:40:56.135Z,100996.00
2019-02-21T22:43:25.826Z,100999.00
2019-02-21T22:45:55.505Z,100999.00
2019-02-21T22:48:25.179Z,100991.00
2019-02-21T22:50:54.889Z,100993.00
2019-02-21T22:53:24.552Z,100992.00
2019-02-21T22:55:54.222Z,100992.00
2019-02-21T22:58:23.933Z,100986.00
2019-02-21T23:01:01.326Z,100982.00
2019-02-21T23:03:44.548Z,100985.00
2019-02-21T23:06:33.423Z,100985.00
2019-02-21T23:09:04.097Z,100979.00
2019-02-21T23:11:33.872Z,100970.00
2019-02-21T23:14:03.549Z,100980.00
2019-02-21T23:16:33.342Z,100981.00
2019-02-21T23:19:03.001Z,100977.00
2019-02-21T23:21:32.718Z,100977.00
2019-02-21T23:24:02.646Z,100987.00
2019-02-21T23:26:32.325Z,100977.00
2019-02-21T23:29:02.071Z,100977.00
2019-02-21T23:31:31.772Z,100980.00
2019-02-21T23:34:03.076Z,100975.00
2019-02-21T23:36:32.748Z,100987.00
2019-02-21T23:39:02.445Z,100976.00
2019-02-21T23:41:32.113Z,100978.00
2019-02-21T23:44:01.775Z,100982.00
2019-02-21T23:46:31.481Z,100984.00
2019-02-21T23:49:01.141Z,100985.00
2019-02-21T23:51:30.811Z,100985.00
2019-02-21T23:54:03.349Z,100977.00
2019-02-21T23:56:31.919Z,100985.00
2019-02-21T23:59:01.597Z,100977.00
